Time;durP1;ratioP1;P1;durP2;ratioP2;P2;SDS_P1;SDS_P2;PMS_P1;PMS_P2;Temp;Humidity;BMP_temperature;BMP_pressure;BME280_temperature;BME280_humidity;BME280_pressure;Samples;Min_cycle;Max_cycle;Signal;HPM_P1;HPM_P2
2023/04/06 00:04:45;;;;;;;10.73;4.65;;;;;;;3.78;45.32;98193.28;12813856;23;20431;-77
2023/04/06 00:10:06;;;;;;;11.18;4.57;;;;;;;3.70;45.44;98193.22;12823250;23;20017;-77
2023/04/06 00:15:27;;;;;;;8.82;4.95;;;;;;;3.64;45.46;98184.31;12823296;23;20020;-77
2023/04/06 00:20:48;;;;;;;9.27;4.65;;;;;;;3.52;45.43;98180.34;12822010;23;20016;-77
2023/04/06 00:26:10;;;;;;;8.05;4.20;;;;;;;3.49;45.87;98179.41;12821808;23;20025;-77
2023/04/06 00:31:33;;;;;;;6.10;3.80;;;;;;;3.45;45.72;98176.22;12802827;23;20020;-77
2023/04/06 00:36:54;;;;;;;9.73;5.07;;;;;;;3.48;45.92;98183.44;12823371;23;20343;-78
2023/04/06 00:42:15;;;;;;;9.73;4.25;;;;;;;3.41;46.38;98173.06;12821496;23;20012;-77
2023/04/06 00:47:35;;;;;;;5.97;3.45;;;;;;;3.34;46.51;98173.69;12793942;23;20071;-77
2023/04/06 00:52:56;;;;;;;6.15;3.05;;;;;;;3.27;46.24;98163.31;12818602;23;20431;-78
2023/04/06 00:58:20;;;;;;;6.53;3.60;;;;;;;3.23;46.91;98166.41;12835405;23;20016;-77
2023/04/06 01:03:48;;;;;;;8.13;3.90;;;;;;;3.13;46.88;98159.88;12795372;23;20059;-77
2023/04/06 01:09:11;;;;;;;7.72;3.85;;;;;;;3.06;47.13;98164.00;12800533;23;20025;-77
2023/04/06 01:14:32;;;;;;;5.75;2.97;;;;;;;3.03;47.43;98158.81;12841829;23;20436;-78
2023/04/06 01:19:54;;;;;;;8.40;3.95;;;;;;;3.00;47.04;98160.66;12821565;23;20036;-77
2023/04/06 01:25:21;;;;;;;7.00;3.83;;;;;;;2.97;46.98;98164.44;12805610;23;20020;-77
2023/04/06 01:30:58;;;;;;;10.13;4.60;;;;;;;2.93;47.43;98164.03;12790321;23;20301;-77
2023/04/06 01:36:35;;;;;;;8.05;4.07;;;;;;;2.93;47.83;98164.03;12807640;23;20013;-78
2023/04/06 01:42:14;;;;;;;7.90;4.25;;;;;;;2.95;47.58;98155.97;12824868;23;20017;-77
2023/04/06 01:47:36;;;;;;;9.80;4.68;;;;;;;2.93;47.86;98153.00;12801036;23;20016;-78
2023/04/06 01:52:58;;;;;;;9.80;4.60;;;;;;;2.86;47.33;98153.66;12818661;23;20024;-77
2023/04/06 01:58:21;;;;;;;9.52;4.93;;;;;;;2.78;47.63;98145.28;12800321;23;20028;-77
2023/04/06 02:03:42;;;;;;;12.52;4.80;;;;;;;2.79;48.08;98148.78;12837729;23;20020;-77
2023/04/06 02:09:05;;;;;;;11.52;4.55;;;;;;;2.78;48.36;98152.81;12823003;23;20017;-78
2023/04/06 02:14:27;;;;;;;13.20;5.60;;;;;;;2.71;48.20;98145.94;12828101;23;20013;-77
2023/04/06 02:19:51;;;;;;;11.13;4.95;;;;;;;2.69;48.05;98142.97;12802304;23;20016;-77
2023/04/06 02:25:12;;;;;;;8.43;4.10;;;;;;;2.70;48.31;98146.47;12796074;23;20016;-77
2023/04/06 02:30:34;;;;;;;9.18;3.80;;;;;;;2.64;48.49;98148.59;12816657;23;20021;-77
2023/04/06 02:35:55;;;;;;;7.80;3.95;;;;;;;2.59;48.36;98145.41;12840583;23;20070;-77
2023/04/06 02:41:16;;;;;;;8.30;3.38;;;;;;;2.56;48.55;98143.72;12779720;23;20024;-77
2023/04/06 02:46:38;;;;;;;8.80;3.80;;;;;;;2.54;48.30;98140.03;12799433;23;20024;-77
2023/04/06 02:52:00;;;;;;;6.50;3.20;;;;;;;2.51;48.02;98130.81;12820128;23;20017;-77
2023/04/06 02:57:25;;;;;;;4.88;3.20;;;;;;;2.48;48.52;98145.63;12841655;23;20012;-77
2023/04/06 03:02:46;;;;;;;7.85;3.47;;;;;;;2.48;48.68;98136.63;12840764;23;20013;-78
2023/04/06 03:08:09;;;;;;;9.05;3.35;;;;;;;2.45;48.60;98137.69;12821871;23;20025;-77
2023/04/06 03:13:38;;;;;;;5.55;3.00;;;;;;;2.39;48.56;98140.53;12823405;23;20013;-77
2023/04/06 03:19:00;;;;;;;8.18;3.17;;;;;;;2.32;49.04;98138.44;12800569;23;20028;-77
2023/04/06 03:24:25;;;;;;;7.55;2.83;;;;;;;2.28;49.46;98140.75;12805127;23;20017;-77
2023/04/06 03:29:46;;;;;;;7.85;3.30;;;;;;;2.26;49.19;98146.06;12823549;23;20317;-78
2023/04/06 03:35:12;;;;;;;7.53;3.38;;;;;;;2.23;48.97;98147.88;12826342;23;20012;-77
2023/04/06 03:40:33;;;;;;;8.38;2.53;;;;;;;2.25;49.61;98147.31;12803484;23;20020;-77
2023/04/06 03:45:54;;;;;;;5.78;2.92;;;;;;;2.09;49.72;98156.63;12823459;23;20017;-77
2023/04/06 03:51:14;;;;;;;6.78;3.08;;;;;;;2.01;49.95;98162.00;12843824;23;20012;-78
2023/04/06 03:56:35;;;;;;;4.68;2.22;;;;;;;1.95;49.94;98167.63;12801209;23;20024;-77
2023/04/06 04:01:58;;;;;;;6.45;2.75;;;;;;;1.89;50.10;98177.22;12822422;23;20012;-77
2023/04/06 04:07:19;;;;;;;4.53;2.38;;;;;;;1.79;50.15;98173.41;12802366;23;20012;-78
2023/04/06 04:12:40;;;;;;;6.38;3.15;;;;;;;1.77;49.96;98175.94;12821961;23;20032;-77
2023/04/06 04:18:01;;;;;;;5.53;2.30;;;;;;;1.77;50.23;98175.94;12841623;23;20021;-77
2023/04/06 04:23:22;;;;;;;4.93;2.75;;;;;;;1.80;50.57;98170.13;12842722;23;20024;-77
2023/04/06 04:28:42;;;;;;;7.55;2.60;;;;;;;1.82;50.46;98175.81;12806901;23;20017;-77
2023/04/06 04:34:06;;;;;;;9.02;2.38;;;;;;;1.89;50.21;98166.97;12842627;23;20016;-77
2023/04/06 04:39:28;;;;;;;4.15;2.13;;;;;;;1.97;50.59;98187.09;12840618;23;20012;-78
2023/04/06 04:44:55;;;;;;;4.93;1.90;;;;;;;2.10;50.64;98175.38;12824905;23;20427;-77
2023/04/06 04:50:28;;;;;;;5.70;2.15;;;;;;;2.31;50.68;98172.75;12803365;23;20436;-78
2023/04/06 04:55:51;;;;;;;5.43;2.17;;;;;;;2.62;50.37;98186.97;12823202;23;20497;-77
2023/04/06 05:01:14;;;;;;;6.70;3.35;;;;;;;2.83;50.50;98188.56;12822379;23;20455;-78
2023/04/06 05:06:37;;;;;;;20.27;8.37;;;;;;;2.86;51.23;98192.25;12806823;23;20012;-77
2023/04/06 05:11:59;;;;;;;23.48;10.25;;;;;;;2.97;51.91;98203.06;12826925;23;20020;-77
2023/04/06 05:17:23;;;;;;;22.67;11.80;;;;;;;3.20;51.76;98202.63;12842573;23;20017;-78
2023/04/06 05:22:44;;;;;;;21.15;12.18;;;;;;;3.64;51.43;98206.41;12802572;23;20019;-77
2023/04/06 05:28:06;;;;;;;23.80;11.55;;;;;;;4.36;51.26;98205.94;12838434;23;20016;-77
2023/04/06 05:33:30;;;;;;;23.07;11.73;;;;;;;5.16;51.66;98195.69;12770643;23;20017;-77
2023/04/06 05:38:59;;;;;;;21.77;12.20;;;;;;;6.19;51.27;98206.66;12846843;23;20013;-77
2023/04/06 05:44:28;;;;;;;23.05;12.43;;;;;;;7.60;50.89;98201.09;12829274;23;20016;-78
2023/04/06 05:49:59;;;;;;;22.55;12.02;;;;;;;11.93;50.66;98208.19;12855531;23;20020;-78
2023/04/06 05:55:27;;;;;;;20.17;12.63;;;;;;;18.22;33.75;98205.50;12815281;23;20067;-78
2023/04/06 06:01:00;;;;;;;21.38;11.73;;;;;;;22.18;32.38;98201.06;12826031;23;20012;-78
2023/04/06 06:06:30;;;;;;;21.25;10.80;;;;;;;25.37;29.84;98210.50;12808614;23;20432;-76
2023/04/06 06:12:17;;;;;;;17.58;10.82;;;;;;;27.52;25.39;98208.91;12825704;23;20013;-78
2023/04/06 06:17:38;;;;;;;16.75;10.05;;;;;;;28.79;22.57;98213.91;12839985;23;20012;-78
2023/04/06 06:23:00;;;;;;;19.48;10.40;;;;;;;30.02;19.88;98218.28;12820478;23;20087;-78
2023/04/06 06:28:21;;;;;;;13.98;9.93;;;;;;;30.60;17.46;98213.78;12861695;23;20074;-78
2023/04/06 06:33:42;;;;;;;13.50;8.73;;;;;;;32.14;16.44;98214.06;12820397;23;20017;-78
2023/04/06 06:39:03;;;;;;;16.15;9.32;;;;;;;33.38;14.62;98211.72;12818408;23;20020;-78
2023/04/06 06:44:25;;;;;;;15.20;9.82;;;;;;;33.85;11.35;98217.41;12817553;23;20062;-79
2023/04/06 06:49:45;;;;;;;13.35;8.93;;;;;;;33.50;11.19;98223.09;12838310;23;20016;-78
2023/04/06 06:55:07;;;;;;;17.00;9.77;;;;;;;33.86;10.96;98224.63;12798974;23;20012;-78
2023/04/06 07:00:28;;;;;;;11.43;9.50;;;;;;;34.29;10.76;98227.47;12836978;23;20023;-78
2023/04/06 07:05:53;;;;;;;12.70;9.52;;;;;;;34.77;9.89;98222.16;12798317;23;20501;-79
2023/04/06 07:11:15;;;;;;;12.68;8.85;;;;;;;35.51;9.21;98221.91;12806810;23;20428;-81
2023/04/06 07:16:36;;;;;;;15.15;8.18;;;;;;;36.73;8.54;98229.53;12788766;23;20028;-81
2023/04/06 07:21:57;;;;;;;14.02;8.50;;;;;;;36.35;8.09;98219.75;12794469;23;20017;-80
2023/04/06 07:27:19;;;;;;;11.50;7.50;;;;;;;37.76;7.62;98219.03;12819147;23;20024;-80
2023/04/06 07:32:40;;;;;;;10.82;7.13;;;;;;;39.33;7.28;98211.00;12790664;23;20347;-81
2023/04/06 07:38:02;;;;;;;13.25;8.40;;;;;;;39.74;6.15;98212.94;12815809;23;20017;-80
2023/04/06 07:43:24;;;;;;;9.15;6.90;;;;;;;40.92;6.29;98217.97;12806999;23;20079;-80
2023/04/06 07:48:46;;;;;;;13.30;7.65;;;;;;;40.83;5.39;98200.09;12839303;23;20028;-80
2023/04/06 07:54:06;;;;;;;10.38;7.45;;;;;;;40.27;5.43;98204.81;12774441;23;20020;-78
2023/04/06 07:59:28;;;;;;;11.15;6.35;;;;;;;39.67;5.63;98211.09;12807350;23;20012;-79
2023/04/06 08:04:50;;;;;;;9.52;6.50;;;;;;;41.28;5.37;98212.59;12804545;23;20017;-80
2023/04/06 08:10:11;;;;;;;12.40;6.47;;;;;;;41.80;4.96;98209.28;12811897;23;20087;-78
2023/04/06 08:15:32;;;;;;;12.88;7.72;;;;;;;40.58;4.56;98212.94;12840938;23;20017;-80
2023/04/06 08:20:54;;;;;;;9.65;6.45;;;;;;;39.61;4.59;98212.06;12795164;23;20043;-80
2023/04/06 08:26:15;;;;;;;9.73;6.53;;;;;;;41.30;4.40;98215.41;12820910;23;20071;-79
2023/04/06 08:31:37;;;;;;;8.02;5.97;;;;;;;41.95;4.07;98218.00;12813679;23;20024;-80
2023/04/06 08:36:58;;;;;;;8.57;5.97;;;;;;;42.33;3.98;98200.63;12837936;23;20021;-80
2023/04/06 08:42:20;;;;;;;8.32;5.63;;;;;;;42.45;3.53;98202.19;12807514;23;20134;-80
2023/04/06 08:47:41;;;;;;;6.38;5.07;;;;;;;41.71;3.91;98197.25;12792384;23;20352;-79
2023/04/06 08:53:02;;;;;;;9.18;4.97;;;;;;;43.58;3.54;98197.34;12817651;23;20012;-79
2023/04/06 08:58:23;;;;;;;7.57;4.65;;;;;;;45.07;2.79;98198.44;12789535;23;20032;-79
2023/04/06 09:03:58;;;;;;;5.30;3.72;;;;;;;43.61;3.17;98196.38;12815963;23;20043;-79
2023/04/06 09:09:20;;;;;;;6.13;3.85;;;;;;;43.78;3.26;98195.44;12811571;23;20376;-79
2023/04/06 09:14:44;;;;;;;6.00;3.30;;;;;;;45.00;2.88;98188.59;12812757;23;20016;-81
2023/04/06 09:20:05;;;;;;;6.00;3.00;;;;;;;44.92;2.30;98191.34;12835772;23;20016;-80
2023/04/06 09:25:26;;;;;;;4.90;2.55;;;;;;;43.79;2.79;98185.81;12828457;23;20024;-80
2023/04/06 09:30:49;;;;;;;4.22;2.50;;;;;;;43.52;2.58;98180.06;12812281;23;20017;-83
2023/04/06 09:36:11;;;;;;;5.63;2.58;;;;;;;36.62;3.51;98176.78;12817344;23;20051;-94
2023/04/06 09:41:33;;;;;;;4.90;2.15;;;;;;;30.12;5.77;98171.50;12808057;23;20494;-86
2023/04/06 09:46:54;;;;;;;4.53;1.90;;;;;;;35.60;5.80;98175.97;12813942;23;20074;-88
2023/04/06 09:52:20;;;;;;;2.83;1.50;;;;;;;39.30;3.36;98157.13;12819931;23;20079;-89
2023/04/06 09:57:55;;;;;;;3.55;1.73;;;;;;;40.85;3.10;98156.09;12811399;23;20028;-90
2023/04/06 10:03:25;;;;;;;2.47;1.67;;;;;;;42.23;2.62;98163.06;12826910;23;20024;-79
2023/04/06 10:08:46;;;;;;;3.42;1.65;;;;;;;33.59;4.46;98157.84;12812014;23;20016;-78
2023/04/06 10:14:07;;;;;;;3.20;1.90;;;;;;;28.96;6.11;98146.44;12796526;23;20036;-76
2023/04/06 10:19:49;;;;;;;2.33;1.80;;;;;;;29.97;6.87;98149.94;12789310;23;20017;-78
2023/04/06 10:25:10;;;;;;;3.42;1.73;;;;;;;38.30;4.37;98149.34;12816630;23;20375;-78
2023/04/06 10:30:31;;;;;;;2.40;1.55;;;;;;;41.84;2.97;98138.00;12882650;23;20019;-80
2023/04/06 10:35:51;;;;;;;2.35;1.70;;;;;;;40.12;2.89;98130.25;12812710;23;20013;-79
2023/04/06 10:41:13;;;;;;;2.15;1.60;;;;;;;34.04;4.20;98128.03;12818041;23;20020;-79
2023/04/06 10:46:34;;;;;;;3.00;1.90;;;;;;;27.03;6.24;98128.28;12810661;23;20016;-76
2023/04/06 10:51:55;;;;;;;3.90;2.17;;;;;;;23.64;8.09;98130.84;12813410;23;20047;-75
2023/04/06 10:57:16;;;;;;;3.65;2.45;;;;;;;24.02;9.20;98126.63;12839464;23;20020;-78
2023/04/06 11:02:37;;;;;;;2.58;1.85;;;;;;;30.00;7.20;98108.91;12830021;23;20071;-77
2023/04/06 11:07:58;;;;;;;;;;;;;;;27.97;7.33;98114.53;12860926;23;20020;-78
2023/04/06 11:13:19;;;;;;;6.47;2.15;;;;;;;25.73;8.30;98101.06;12883563;23;19916;-77
2023/04/06 11:18:53;;;;;;;4.50;2.30;;;;;;;24.45;8.83;98102.56;12858872;23;20016;-77
2023/04/06 11:24:19;;;;;;;2.70;1.92;;;;;;;22.98;9.95;98093.72;12796949;23;20348;-77
2023/04/06 11:29:40;;;;;;;3.78;1.73;;;;;;;23.13;10.03;98098.31;12836977;23;20440;-77
2023/04/06 11:35:01;;;;;;;3.40;1.93;;;;;;;22.84;10.07;98102.59;12816767;23;20016;-77
2023/04/06 11:40:22;;;;;;;4.15;2.30;;;;;;;22.94;10.24;98093.59;12857855;23;20036;-78
2023/04/06 11:45:43;;;;;;;3.57;2.03;;;;;;;22.98;9.80;98079.47;12799825;23;20028;-77
2023/04/06 11:51:04;;;;;;;3.88;2.10;;;;;;;23.34;10.35;98090.25;12861850;23;20016;-79
2023/04/06 11:56:28;;;;;;;3.97;2.10;;;;;;;23.34;9.97;98081.69;12862169;23;20017;-76
2023/04/06 12:01:49;;;;;;;4.22;2.13;;;;;;;23.24;10.10;98075.78;12820757;23;20075;-76
2023/04/06 12:07:09;;;;;;;3.95;2.60;;;;;;;22.56;10.23;98062.75;12802394;23;20016;-76
2023/04/06 12:12:30;;;;;;;3.38;2.20;;;;;;;21.01;11.65;98068.97;12825058;23;20432;-76
2023/04/06 12:17:51;;;;;;;5.05;2.40;;;;;;;20.92;11.99;98063.69;12822351;23;20017;-76
2023/04/06 12:23:12;;;;;;;5.25;2.22;;;;;;;21.41;11.99;98063.81;12798454;23;20017;-76
2023/04/06 12:28:32;;;;;;;3.08;2.15;;;;;;;21.63;11.54;98055.25;12812478;23;20025;-76
2023/04/06 12:33:53;;;;;;;4.78;2.50;;;;;;;21.78;11.94;98064.91;12817147;23;20021;-76
2023/04/06 12:39:14;;;;;;;3.67;2.67;;;;;;;21.44;12.12;98064.63;12820995;23;20482;-76
2023/04/06 12:44:35;;;;;;;4.38;2.70;;;;;;;20.47;12.60;98050.91;12813284;23;20028;-77
2023/04/06 12:49:56;;;;;;;3.42;2.28;;;;;;;19.96;13.73;98051.94;12816082;23;20032;-77
2023/04/06 12:55:17;;;;;;;8.40;3.17;;;;;;;19.18;13.39;98042.69;12863429;23;20424;-77
2023/04/06 13:00:37;;;;;;;4.68;3.00;;;;;;;18.53;14.15;98048.56;12812054;23;20023;-78
2023/04/06 13:05:59;;;;;;;5.88;3.28;;;;;;;18.63;14.47;98034.84;12850044;23;20013;-75
2023/04/06 13:11:21;;;;;;;3.97;2.47;;;;;;;18.65;14.47;98025.75;12838651;23;20016;-74
2023/04/06 13:16:42;;;;;;;7.70;2.73;;;;;;;18.63;14.66;98034.13;12831722;23;20017;-72
2023/04/06 13:22:03;;;;;;;5.20;3.30;;;;;;;18.66;14.75;98027.19;12815868;23;20019;-73
2023/04/06 13:27:24;;;;;;;4.57;2.47;;;;;;;18.03;14.66;98020.34;12809890;23;20340;-90
2023/04/06 13:32:45;;;;;;;3.58;2.92;;;;;;;17.35;15.27;98009.56;12812919;23;20375;-73
2023/04/06 13:38:05;;;;;;;9.50;3.15;;;;;;;17.15;15.49;98006.56;12817431;23;20016;-75
2023/04/06 13:43:26;;;;;;;4.68;3.08;;;;;;;17.29;15.86;97998.75;12830512;23;20368;-75
2023/04/06 13:48:48;;;;;;;5.55;3.08;;;;;;;17.43;15.82;98005.03;12834954;23;20332;-75
2023/04/06 13:54:09;;;;;;;6.70;3.80;;;;;;;17.43;15.78;98007.84;12818499;23;20367;-75
2023/04/06 13:59:36;;;;;;;7.70;3.33;;;;;;;17.27;16.15;97992.25;12809418;23;20013;-75
2023/04/06 14:04:57;;;;;;;6.75;3.50;;;;;;;17.34;15.90;97994.00;12817342;23;20023;-74
2023/04/06 14:10:20;;;;;;;3.97;2.97;;;;;;;17.16;16.18;97988.25;12799546;23;20028;-76
2023/04/06 14:15:42;;;;;;;4.05;3.10;;;;;;;16.64;16.35;97978.78;12841219;23;20017;-76
2023/04/06 14:21:03;;;;;;;4.60;3.28;;;;;;;15.98;16.54;97983.34;12819673;23;20020;-76
2023/04/06 14:26:24;;;;;;;4.05;3.03;;;;;;;15.51;17.24;97985.84;12798687;23;20013;-76
2023/04/06 14:31:46;;;;;;;4.53;2.75;;;;;;;15.62;17.43;97989.94;12841300;23;20098;-76
2023/04/06 14:37:07;;;;;;;4.30;3.17;;;;;;;15.71;17.69;97984.09;12821195;23;20012;-75
2023/04/06 14:42:28;;;;;;;5.97;3.38;;;;;;;15.43;17.52;97988.22;12799503;23;20020;-78
2023/04/06 14:47:50;;;;;;;7.50;3.47;;;;;;;15.11;17.85;97979.53;12826322;23;20016;-79
2023/04/06 14:53:11;;;;;;;4.97;3.22;;;;;;;14.93;18.04;97975.75;12833274;23;20028;-78
2023/04/06 14:58:35;;;;;;;5.20;3.38;;;;;;;15.00;18.21;97983.16;12849982;23;20080;-81
2023/04/06 15:04:19;;;;;;;5.27;3.00;;;;;;;14.33;18.18;97971.75;12809264;23;20089;-82
2023/04/06 15:09:40;;;;;;;3.78;3.00;;;;;;;14.35;18.81;97959.16;12818176;23;20040;-79
2023/04/06 15:15:01;;;;;;;4.63;3.00;;;;;;;14.16;18.67;97965.81;12852765;23;20033;-82
2023/04/06 15:20:22;;;;;;;4.72;2.92;;;;;;;14.03;19.17;97965.13;12777948;23;20357;-78
2023/04/06 15:25:43;;;;;;;4.30;2.80;;;;;;;13.94;19.52;97968.09;12787337;23;20070;-76
2023/04/06 15:31:13;;;;;;;5.88;2.90;;;;;;;14.02;19.69;97966.47;12784758;23;20021;-75
2023/04/06 15:36:47;;;;;;;;;;;;;;;13.58;20.49;97959.00;12817524;23;20017;-77
2023/04/06 15:42:09;;;;;;;6.13;3.90;;;;;;;13.39;20.40;97964.84;12792961;23;19923;-76
2023/04/06 15:47:30;;;;;;;5.10;3.55;;;;;;;13.09;20.15;97961.66;12733524;23;20017;-78
2023/04/06 15:52:53;;;;;;;;;;;;;;;12.94;22.00;97961.41;12838300;23;20332;-79
2023/04/06 15:58:14;;;;;;;7.53;3.80;;;;;;;12.73;21.04;97962.94;12796985;23;19921;-79
2023/04/06 16:03:35;;;;;;;5.18;3.33;;;;;;;12.86;21.06;97951.16;12847425;23;20039;-79
2023/04/06 16:08:56;;;;;;;8.60;3.72;;;;;;;12.79;21.25;97957.72;12773963;23;20032;-75
2023/04/06 16:14:17;;;;;;;6.85;4.03;;;;;;;12.64;21.85;97958.16;12789835;23;20017;-77
2023/04/06 16:19:38;;;;;;;4.47;3.55;;;;;;;12.43;21.75;97955.41;12798282;23;20017;-76
2023/04/06 16:24:58;;;;;;;6.30;3.75;;;;;;;12.39;21.81;97955.16;12836802;23;20017;-76
2023/04/06 16:30:19;;;;;;;5.57;4.10;;;;;;;12.14;22.76;97956.41;12799202;23;20036;-77
2023/04/06 16:35:44;;;;;;;5.10;3.33;;;;;;;11.98;22.29;97958.16;12776899;23;20021;-76
2023/04/06 16:41:05;;;;;;;5.57;4.13;;;;;;;11.89;22.87;97959.69;12847165;23;20024;-81
2023/04/06 16:46:33;;;;;;;5.50;4.18;;;;;;;11.75;22.41;97951.06;12824614;23;20021;-78
2023/04/06 16:51:54;;;;;;;8.05;4.68;;;;;;;11.65;22.76;97963.63;12819473;23;20016;-78
2023/04/06 16:57:15;;;;;;;6.60;4.13;;;;;;;11.57;23.11;97961.03;12820937;23;20025;-78
2023/04/06 17:02:37;;;;;;;6.55;3.78;;;;;;;11.52;23.36;97964.91;12835531;23;20336;-77
2023/04/06 17:07:58;;;;;;;6.95;4.18;;;;;;;11.37;23.25;97954.81;12770250;22;20024;-85
2023/04/06 17:13:20;;;;;;;6.63;4.18;;;;;;;11.17;23.21;97954.16;12776617;23;20037;-86
2023/04/06 17:24:57;;;;;;;5.75;3.97;;;;;;;10.87;23.67;97949.28;12807325;23;20031;-86
2023/04/06 17:30:18;;;;;;;5.55;3.92;;;;;;;10.75;23.88;97959.63;12757453;23;20013;-81
2023/04/06 17:35:41;;;;;;;6.13;4.43;;;;;;;10.52;24.01;97968.47;12757847;23;20164;-78
2023/04/06 17:41:06;;;;;;;8.95;3.80;;;;;;;10.32;24.24;97967.75;12774798;23;20021;-81
2023/04/06 17:46:28;;;;;;;7.05;3.85;;;;;;;10.22;24.43;97975.38;12766764;23;20031;-80
2023/04/06 17:51:51;;;;;;;8.07;4.97;;;;;;;10.11;24.73;97973.16;12785623;23;20021;-81
2023/04/06 18:03:27;;;;;;;7.40;4.65;;;;;;;9.80;24.99;97982.09;12809441;23;20063;-77
2023/04/06 18:08:48;;;;;;;9.65;4.80;;;;;;;9.78;25.17;97984.72;12793503;23;20021;-74
2023/04/06 18:14:11;;;;;;;15.05;8.20;;;;;;;9.71;25.49;97991.16;12805979;23;20325;-74
2023/04/06 18:19:33;;;;;;;9.27;4.95;;;;;;;9.65;25.73;97993.47;12812798;23;20020;-74
2023/04/06 18:24:54;;;;;;;10.07;4.65;;;;;;;9.54;25.69;97989.22;12786493;23;20017;-73
2023/04/06 18:30:16;;;;;;;7.43;4.95;;;;;;;9.48;25.99;97988.03;12780488;23;20083;-74
2023/04/06 18:35:38;;;;;;;7.47;5.20;;;;;;;9.41;26.20;97990.34;12803585;23;20017;-74
2023/04/06 18:40:59;;;;;;;7.93;5.00;;;;;;;9.30;26.20;97996.47;12806983;23;20021;-74
2023/04/06 18:46:21;;;;;;;7.20;5.13;;;;;;;9.22;26.28;98001.41;12805655;23;20088;-74
2023/04/06 18:51:42;;;;;;;7.85;5.45;;;;;;;9.07;26.67;97996.81;12810623;23;20036;-80
2023/04/06 18:57:03;;;;;;;12.23;6.80;;;;;;;8.93;27.23;98003.34;12803852;23;20024;-80
2023/04/06 19:02:24;;;;;;;10.45;7.10;;;;;;;8.79;27.70;98005.75;12785728;23;20020;-80
2023/04/06 19:07:51;;;;;;;9.45;5.78;;;;;;;8.64;27.82;98000.38;12783595;23;20017;-80
2023/04/06 19:13:12;;;;;;;9.95;5.82;;;;;;;8.55;27.76;97999.00;12836918;23;20001;-78
2023/04/06 19:18:36;;;;;;;7.90;5.95;;;;;;;8.50;27.75;98002.78;12872067;23;20069;-80
2023/04/06 19:23:57;;;;;;;14.50;8.10;;;;;;;8.38;28.36;98001.78;12774814;23;20025;-82
2023/04/06 19:29:19;;;;;;;9.48;7.07;;;;;;;8.21;28.69;98006.06;12790422;23;20028;-81
2023/04/06 19:35:45;;;;;;;11.20;6.43;;;;;;;8.03;29.92;97999.75;12812088;23;20017;-80
2023/04/06 19:41:10;;;;;;;11.18;7.63;;;;;;;7.97;29.17;98001.28;12783310;23;20340;-79
2023/04/06 19:47:05;;;;;;;11.38;6.85;;;;;;;7.97;30.21;98001.28;12845968;23;20077;-87
2023/04/06 20:13:45;;;;;;;10.77;6.82;;;;;;;7.82;30.07;98004.22;12866141;23;20332;-80
2023/04/06 20:19:08;;;;;;;8.68;6.40;;;;;;;7.82;29.80;98004.22;12762395;23;20025;-80
2023/04/06 20:24:30;;;;;;;13.10;7.50;;;;;;;7.79;29.84;98005.34;12777746;23;20039;-81
2023/04/06 20:29:57;;;;;;;16.05;10.60;;;;;;;7.71;30.28;98008.94;12785997;23;20013;-81
2023/04/06 20:35:24;;;;;;;17.73;11.05;;;;;;;7.61;30.10;98002.53;12811329;23;20028;-81
2023/04/06 20:40:50;;;;;;;14.45;9.43;;;;;;;7.58;30.60;98003.69;12791218;23;20040;-81
2023/04/06 20:46:16;;;;;;;14.02;7.78;;;;;;;7.46;30.73;97997.88;12763446;23;20344;-82
2023/04/06 20:51:38;;;;;;;11.80;7.43;;;;;;;7.43;31.00;97999.00;12789249;23;20021;-79
2023/04/06 20:57:00;;;;;;;8.60;6.50;;;;;;;7.41;30.83;98007.16;12783799;23;20025;-79
2023/04/06 21:02:21;;;;;;;8.93;6.28;;;;;;;7.36;31.06;98004.63;12787845;23;20077;-81
2023/04/06 21:07:43;;;;;;;8.20;6.05;;;;;;;7.30;31.10;98002.06;12721889;23;20104;-81
2023/04/06 21:13:03;;;;;;;10.63;6.25;;;;;;;7.23;31.41;97996.56;12775940;23;20073;-81
2023/04/06 21:18:24;;;;;;;11.15;6.72;;;;;;;7.16;31.41;98000.88;12761531;23;20025;-81
2023/04/06 21:23:45;;;;;;;19.27;10.63;;;;;;;7.13;31.61;98008.28;12762220;23;20032;-79
2023/04/06 21:29:06;;;;;;;19.80;11.65;;;;;;;7.04;31.88;97997.78;12782628;23;20068;-81
2023/04/06 21:34:27;;;;;;;15.02;8.50;;;;;;;6.96;31.84;98005.44;12763803;23;20033;-80
2023/04/06 21:39:48;;;;;;;17.52;8.73;;;;;;;6.93;31.84;98003.78;12761539;23;20013;-81
2023/04/06 21:45:09;;;;;;;13.50;6.70;;;;;;;6.93;31.92;98006.56;12763575;23;20022;-81
2023/04/06 21:50:30;;;;;;;11.52;6.65;;;;;;;6.88;31.91;97996.41;12762392;23;20018;-81
2023/04/06 21:55:51;;;;;;;16.10;7.45;;;;;;;6.84;31.89;97993.28;12762603;23;20024;-81
2023/04/06 22:01:12;;;;;;;19.85;7.95;;;;;;;6.77;32.41;97996.84;12763878;23;20385;-81
2023/04/06 22:06:33;;;;;;;13.02;6.13;;;;;;;6.73;32.00;97988.19;12748348;23;20022;-81
2023/04/06 22:11:54;;;;;;;13.65;6.63;;;;;;;6.73;32.37;97990.94;12783071;23;20041;-81
2023/04/06 22:17:15;;;;;;;14.75;8.05;;;;;;;6.70;32.39;97989.31;12764184;23;20064;-80
2023/04/06 22:22:36;;;;;;;12.80;6.20;;;;;;;6.59;32.56;97988.44;12764692;23;20017;-79
2023/04/06 22:27:57;;;;;;;14.10;6.05;;;;;;;6.62;33.43;97985.84;12786861;23;20056;-79
2023/04/06 22:33:18;;;;;;;15.27;6.85;;;;;;;6.62;33.36;97974.75;12791226;23;20032;-78
2023/04/06 22:38:39;;;;;;;18.95;7.63;;;;;;;6.56;33.27;97966.63;12749898;23;20351;-80
2023/04/06 22:44:00;;;;;;;19.10;7.43;;;;;;;6.50;33.65;97975.16;12746307;23;20479;-81
2023/04/06 22:49:21;;;;;;;22.83;8.88;;;;;;;6.41;33.36;97973.00;12766959;23;20022;-82
2023/04/06 22:54:42;;;;;;;17.02;8.07;;;;;;;6.28;33.96;97962.16;12786266;23;20073;-81
2023/04/06 23:00:04;;;;;;;9.65;6.22;;;;;;;6.25;33.88;97977.84;12787366;23;20040;-81
2023/04/06 23:05:25;;;;;;;13.63;6.90;;;;;;;6.15;34.31;97970.69;12777625;23;20037;-81
2023/04/06 23:10:46;;;;;;;10.68;6.07;;;;;;;6.07;34.86;97967.19;12747802;23;20041;-81
2023/04/06 23:16:08;;;;;;;12.55;6.68;;;;;;;6.00;34.72;97974.25;12784325;23;20041;-81
2023/04/06 23:21:29;;;;;;;10.05;6.38;;;;;;;5.99;34.98;97961.69;12768201;23;20028;-81
2023/04/06 23:26:52;;;;;;;12.35;7.25;;;;;;;5.91;34.63;97964.47;12747050;23;20022;-81
2023/04/06 23:32:13;;;;;;;14.07;7.57;;;;;;;5.81;34.96;97962.81;12770715;23;20061;-81
2023/04/06 23:37:34;;;;;;;14.00;7.35;;;;;;;5.72;35.37;97958.59;12789281;23;20117;-81
2023/04/06 23:42:55;;;;;;;13.93;7.72;;;;;;;5.70;35.70;97959.16;12791099;23;20074;-82
2023/04/06 23:48:16;;;;;;;11.70;7.07;;;;;;;5.69;35.71;97959.69;12751008;23;20086;-81
2023/04/06 23:53:37;;;;;;;11.77;6.22;;;;;;;5.68;35.88;97952.66;12751248;23;20017;-81
2023/04/06 23:58:58;;;;;;;10.45;6.65;;;;;;;5.59;36.43;97947.69;12770971;23;20535;-81
